createdAt,value
2019-03-23T00:01:26.404Z,8.20
2019-03-23T00:03:54.959Z,8.20
2019-03-23T00:06:30.854Z,8.20
2019-03-23T00:08:53.790Z,8.00
2019-03-23T00:11:22.394Z,7.90
2019-03-23T00:13:50.944Z,7.80
2019-03-23T00:16:19.498Z,7.70
2019-03-23T00:18:48.067Z,7.70
2019-03-23T00:21:16.621Z,7.60
2019-03-23T00:23:45.185Z,7.60
2019-03-23T00:26:14.059Z,7.70
2019-03-23T00:28:42.622Z,7.60
2019-03-23T00:31:11.247Z,7.50
2019-03-23T00:33:39.816Z,7.30
2019-03-23T00:36:08.363Z,7.10
2019-03-23T00:38:36.864Z,7.10
2019-03-23T00:41:05.419Z,6.90
2019-03-23T00:43:34.180Z,6.90
2019-03-23T00:46:02.730Z,6.80
2019-03-23T00:48:31.283Z,6.60
2019-03-23T00:50:59.854Z,6.40
2019-03-23T00:53:28.791Z,6.30
2019-03-23T00:55:57.407Z,6.20
2019-03-23T00:58:25.955Z,6.10
2019-03-23T01:00:54.600Z,6.00
2019-03-23T01:03:23.155Z,5.90
2019-03-23T01:05:51.749Z,5.80
2019-03-23T01:08:20.312Z,5.80
2019-03-23T01:10:48.887Z,5.90
2019-03-23T01:13:17.469Z,6.00
2019-03-23T01:15:48.092Z,6.00
2019-03-23T01:18:16.259Z,6.00
2019-03-23T01:20:49.537Z,5.90
2019-03-23T01:23:15.054Z,6.00
2019-03-23T01:25:43.580Z,6.10
2019-03-23T01:28:12.147Z,6.10
2019-03-23T01:30:40.626Z,6.20
2019-03-23T01:33:09.534Z,6.30
2019-03-23T01:35:38.412Z,6.30
2019-03-23T01:38:06.995Z,6.30
2019-03-23T01:40:36.426Z,6.40
2019-03-23T01:43:05.029Z,6.30
2019-03-23T01:45:33.511Z,6.30
2019-03-23T01:48:02.091Z,6.30
2019-03-23T01:50:30.669Z,6.10
2019-03-23T01:52:59.238Z,5.90
2019-03-23T01:55:27.798Z,5.60
2019-03-23T01:57:56.387Z,5.40
2019-03-23T02:00:25.244Z,5.40
2019-03-23T02:02:53.795Z,5.30
2019-03-23T02:05:22.368Z,5.20
2019-03-23T02:07:50.919Z,5.10
2019-03-23T02:10:19.496Z,5.00
2019-03-23T02:12:48.046Z,5.00
2019-03-23T02:15:16.791Z,5.10
2019-03-23T02:17:45.344Z,5.20
2019-03-23T02:20:14.754Z,5.20
2019-03-23T02:22:43.422Z,5.20
2019-03-23T02:25:12.376Z,5.30
2019-03-23T02:27:40.919Z,5.50
2019-03-23T02:30:11.318Z,5.70
2019-03-23T02:32:39.857Z,5.70
2019-03-23T02:35:08.948Z,5.50
2019-03-23T02:37:37.516Z,5.40
2019-03-23T02:40:07.713Z,5.30
2019-03-23T02:42:36.353Z,5.30
2019-03-23T02:45:09.651Z,5.20
2019-03-23T02:47:38.230Z,5.00
2019-03-23T02:50:08.916Z,4.90
2019-03-23T02:52:38.086Z,5.00
2019-03-23T02:55:08.458Z,5.10
2019-03-23T02:57:36.960Z,5.30
2019-03-23T03:00:14.213Z,5.50
2019-03-23T03:02:42.799Z,5.70
2019-03-23T03:05:11.763Z,5.70
2019-03-23T03:07:43.266Z,5.80
2019-03-23T03:10:12.469Z,5.80
2019-03-23T03:12:41.016Z,5.90
2019-03-23T03:15:10.327Z,5.80
2019-03-23T03:17:39.314Z,5.80
2019-03-23T03:20:09.321Z,5.70
2019-03-23T03:22:37.893Z,5.50
2019-03-23T03:25:08.088Z,5.20
2019-03-23T03:27:36.706Z,5.00
2019-03-23T03:30:10.725Z,4.80
2019-03-23T03:32:39.280Z,4.80
2019-03-23T03:35:08.994Z,4.80
2019-03-23T03:37:37.564Z,4.70
2019-03-23T03:40:07.361Z,4.50
2019-03-23T03:42:35.949Z,4.40
2019-03-23T03:45:07.399Z,4.40
2019-03-23T03:47:35.996Z,4.40
2019-03-23T03:50:07.852Z,4.50
2019-03-23T03:52:36.431Z,4.30
2019-03-23T03:55:07.116Z,4.20
2019-03-23T03:57:35.712Z,4.20
2019-03-23T04:00:09.447Z,4.20
2019-03-23T04:02:38.573Z,4.20
2019-03-23T04:05:08.447Z,4.20
2019-03-23T04:07:37.003Z,4.20
2019-03-23T04:10:08.127Z,4.20
2019-03-23T04:12:36.693Z,4.10
2019-03-23T04:15:08.108Z,4.10
2019-03-23T04:17:36.727Z,4.20
2019-03-23T04:20:08.025Z,4.30
2019-03-23T04:22:36.601Z,4.40
2019-03-23T04:25:10.281Z,4.40
2019-03-23T04:27:38.941Z,4.40
2019-03-23T04:30:10.197Z,4.30
2019-03-23T04:32:38.813Z,4.30
2019-03-23T04:35:08.428Z,4.20
2019-03-23T04:37:37.355Z,4.30
2019-03-23T04:40:09.045Z,4.40
2019-03-23T04:42:37.620Z,4.50
2019-03-23T04:45:08.507Z,4.60
2019-03-23T04:47:37.087Z,4.60
2019-03-23T04:50:08.570Z,4.70
2019-03-23T04:52:37.138Z,4.90
2019-03-23T04:55:08.807Z,5.10
2019-03-23T04:57:37.647Z,5.20
2019-03-23T05:00:09.438Z,5.10
2019-03-23T05:02:38.011Z,5.10
2019-03-23T05:05:06.904Z,5.10
2019-03-23T05:07:35.474Z,5.00
2019-03-23T05:10:05.503Z,4.90
2019-03-23T05:12:34.093Z,4.80
2019-03-23T05:15:02.650Z,4.70
2019-03-23T05:17:31.198Z,4.30
2019-03-23T05:19:59.787Z,3.90
2019-03-23T05:22:28.403Z,3.70
2019-03-23T05:24:56.979Z,3.50
2019-03-23T05:27:25.529Z,3.40
2019-03-23T05:29:54.170Z,3.50
2019-03-23T05:32:22.845Z,3.60
2019-03-23T05:34:51.431Z,3.70
2019-03-23T05:37:19.983Z,3.90
2019-03-23T05:39:48.949Z,4.10
2019-03-23T05:42:17.503Z,4.20
2019-03-23T05:44:46.096Z,4.30
2019-03-23T05:47:14.652Z,4.50
2019-03-23T05:49:43.234Z,4.70
2019-03-23T05:52:11.958Z,4.80
2019-03-23T05:54:40.531Z,4.80
2019-03-23T05:57:09.147Z,4.70
2019-03-23T05:59:37.773Z,4.50
2019-03-23T06:02:06.442Z,4.40
2019-03-23T06:04:35.276Z,4.20
2019-03-23T06:07:03.920Z,4.20
2019-03-23T06:09:32.462Z,4.30
2019-03-23T06:12:01.213Z,4.50
2019-03-23T06:14:29.765Z,4.80
2019-03-23T06:16:58.419Z,5.10
2019-03-23T06:19:26.979Z,5.40
2019-03-23T06:21:55.555Z,5.80
2019-03-23T06:24:24.117Z,6.20
2019-03-23T06:26:52.711Z,6.40
2019-03-23T06:29:21.377Z,6.90
2019-03-23T06:31:49.928Z,7.20
2019-03-23T06:34:18.499Z,7.80
2019-03-23T06:36:47.052Z,8.40
2019-03-23T06:39:15.623Z,8.90
2019-03-23T06:41:44.195Z,9.40
2019-03-23T06:44:12.788Z,9.80
2019-03-23T06:46:41.339Z,10.10
2019-03-23T06:49:10.222Z,10.80
2019-03-23T06:51:38.776Z,11.40
2019-03-23T06:54:07.347Z,11.70
2019-03-23T06:56:35.903Z,12.40
2019-03-23T06:59:04.571Z,13.00
2019-03-23T07:01:33.127Z,12.90
2019-03-23T07:04:01.686Z,12.10
2019-03-23T07:06:30.267Z,11.00
2019-03-23T07:08:59.281Z,11.20
2019-03-23T07:11:27.866Z,10.70
2019-03-23T07:13:56.426Z,10.60
2019-03-23T07:16:25.036Z,10.60
2019-03-23T07:18:53.591Z,11.00
2019-03-23T07:21:22.271Z,11.50
2019-03-23T07:23:50.842Z,11.70
2019-03-23T07:26:19.416Z,12.30
2019-03-23T07:28:47.990Z,13.60
2019-03-23T07:31:16.593Z,15.00
2019-03-23T07:33:45.223Z,15.90
2019-03-23T07:36:13.783Z,17.20
2019-03-23T07:38:42.459Z,18.40
2019-03-23T07:41:11.031Z,18.50
2019-03-23T07:43:39.620Z,19.40
2019-03-23T07:46:08.180Z,20.40
2019-03-23T07:48:36.758Z,21.60
2019-03-23T07:51:05.331Z,22.20
2019-03-23T07:53:33.919Z,23.70
2019-03-23T07:56:02.500Z,24.00
2019-03-23T07:58:31.155Z,25.10
2019-03-23T08:00:59.783Z,25.40
2019-03-23T08:03:28.379Z,26.10
2019-03-23T08:05:56.947Z,27.00
2019-03-23T08:08:25.519Z,28.10
2019-03-23T08:10:54.164Z,28.40
2019-03-23T08:13:22.848Z,28.30
2019-03-23T08:15:51.599Z,28.40
2019-03-23T08:18:20.148Z,30.20
2019-03-23T08:20:48.731Z,30.90
2019-03-23T08:23:17.290Z,31.50
2019-03-23T08:25:45.905Z,32.30
2019-03-23T08:28:14.465Z,31.20
2019-03-23T08:30:43.101Z,31.60
2019-03-23T08:33:12.117Z,31.80
2019-03-23T08:35:40.669Z,33.30
2019-03-23T08:38:09.241Z,34.10
2019-03-23T08:40:37.968Z,33.10
2019-03-23T08:43:06.530Z,32.70
2019-03-23T08:45:35.121Z,33.20
2019-03-23T08:48:03.755Z,33.00
2019-03-23T08:50:32.399Z,33.00
2019-03-23T08:53:00.994Z,33.10
2019-03-23T08:55:29.551Z,34.00
2019-03-23T08:57:58.507Z,34.80
2019-03-23T09:00:27.067Z,34.60
2019-03-23T09:02:55.711Z,35.50
2019-03-23T09:05:24.312Z,35.40
2019-03-23T09:07:52.900Z,37.50
2019-03-23T09:10:21.459Z,37.60
2019-03-23T09:12:50.048Z,37.30
2019-03-23T09:15:18.604Z,36.40
2019-03-23T09:17:47.159Z,36.80
2019-03-23T09:20:15.876Z,37.50
2019-03-23T09:22:44.455Z,37.00
2019-03-23T09:25:13.108Z,36.70
2019-03-23T09:27:41.663Z,35.90
2019-03-23T09:30:13.607Z,37.80
2019-03-23T09:32:42.298Z,37.60
2019-03-23T09:35:10.962Z,37.40
2019-03-23T09:37:39.460Z,38.10
2019-03-23T09:40:10.957Z,37.70
2019-03-23T09:42:39.695Z,38.30
2019-03-23T09:45:09.026Z,37.80
2019-03-23T09:47:37.794Z,39.10
2019-03-23T09:50:09.090Z,38.60
2019-03-23T09:52:37.741Z,39.10
2019-03-23T09:55:09.472Z,39.80
